Weather History for Andrews, TX

Change the Weather History Date:

Thursday, January 30, 2014

  Actual Average (KMAF) Record (KMAF)
Temperature  
Mean Temperature 53 °F 45 °F  
Max Temperature 75 °F 59 °F 80 °F (1971)
Min Temperature 31 °F 32 °F 8 °F (1951)
Degree Days  
Heating Degree Days 12 20  
Month to date heating degree days 638  
Since 1 July heating degree days 1754  
Growing Degree Days 3 (Base 50)    
Moisture  
Dew Point 17 °F    
Average Humidity 27    
Maximum Humidity 45    
Minimum Humidity 13    
Precipitation  
Precipitation 0.00 in 0.02 in 0.29 in (1964)
Month to date precipitation 0.53  
Year to date precipitation 0.53  
Snow  
Snow 0.00 in - - ()
Month to date snowfall  
Since 1 July snowfall  
Snow Depth -    
Sea Level Pressure  
Sea Level Pressure 29.82 in    
Wind  
Wind Speed 13 mph (SW)    
Max Wind Speed 17 mph    
Max Gust Speed 26 mph    
Visibility 10 miles    
Events      
T = Trace of Precipitation, MM = Missing Value Source: NWS Daily Summary

Daily Weather History Graph

Daily Weather History Graph

Search for Another Location

Airport:

Trip Planner

Search our weather history database for the weather conditions in past years. The results will help you decide how hot, cold, wet, or windy it might be!

Date:

Astronomy

Jan. 30, 2014 Rise Set
Actual Time 7:45 AM CST 6:21 PM CST
Civil Twilight 7:19 AM CST 6:47 PM CST
Nautical Twilight 6:50 AM CST 7:17 PM CST
Astronomical Twilight 6:21 AM CST 7:46 PM CST
Moon 7:15 AM CST (1/30) 6:32 PM CST (1/30)
Length of Visible Light 11h 27m
Length of Day
10h 36m
Waning Crescent, 0% of the Moon is Illuminated
Jan 30
Waning Crescent
Jan 30
New
Feb 6
First Quarter
Feb 14
Full
Feb 22
Last Quarter

Hourly Weather History & Observations

Time (CST) Temp. Windchill Dew Point Humidity Pressure Visibility Wind Dir Wind Speed Gust Speed Precip Events Conditions
12:15 AM 33.6 °F 24.1 °F 6.4 °F 32% 29.93 in 10.0 mi SSW 13.8 mph - N/A   Clear
12:35 AM 33.4 °F 23.5 °F 6.8 °F 33% 29.92 in 10.0 mi SSW 15.0 mph - N/A   Clear
12:55 AM 33.4 °F 23.5 °F 7.5 °F 34% 29.91 in 10.0 mi SSW 15.0 mph 20.7 mph N/A   Clear
1:15 AM 33.4 °F 23.5 °F 7.9 °F 34% 29.91 in 10.0 mi SSW 15.0 mph 21.9 mph N/A   Clear
1:35 AM 33.1 °F 23.0 °F 8.4 °F 36% 29.89 in 10.0 mi SSW 15.0 mph 19.6 mph N/A   Clear
1:55 AM 32.9 °F 22.8 °F 8.6 °F 36% 29.89 in 10.0 mi SSW 15.0 mph 21.9 mph N/A   Clear
2:15 AM 32.9 °F 23.2 °F 9.3 °F 37% 29.87 in 10.0 mi SSW 13.8 mph 20.7 mph N/A   Clear
2:35 AM 32.4 °F 22.1 °F 9.5 °F 39% 29.87 in 10.0 mi SSW 15.0 mph 20.7 mph N/A   Clear
2:55 AM 32.4 °F 21.7 °F 9.9 °F 39% 29.87 in 10.0 mi SSW 16.1 mph 21.9 mph N/A   Clear
3:15 AM 32.2 °F 22.3 °F 10.0 °F 40% 29.86 in 10.0 mi SSW 13.8 mph - N/A   Clear
3:35 AM 32.0 °F 22.1 °F 10.2 °F 40% 29.86 in 10.0 mi SSW 13.8 mph - N/A   Clear
3:55 AM 32.0 °F 23.0 °F 10.4 °F 41% 29.85 in 10.0 mi SSW 11.5 mph - N/A   Clear
4:15 AM 32.0 °F 23.0 °F 10.6 °F 41% 29.86 in 10.0 mi SSW 11.5 mph - N/A   Clear
4:35 AM 31.8 °F 23.3 °F 10.8 °F 42% 29.86 in 10.0 mi SSW 10.4 mph - N/A   Clear
4:55 AM 31.8 °F 22.8 °F 11.1 °F 42% 29.84 in 10.0 mi SSW 11.5 mph - N/A   Clear
5:15 AM 31.8 °F 21.8 °F 11.3 °F 43% 29.84 in 10.0 mi SSW 13.8 mph - N/A   Clear
5:35 AM 31.8 °F 22.3 °F 11.8 °F 44% 29.84 in 10.0 mi SSW 12.7 mph - N/A   Clear
5:55 AM 32.0 °F 22.1 °F 12.2 °F 44% 29.82 in 10.0 mi SSW 13.8 mph 20.7 mph N/A   Clear
6:15 AM 32.4 °F 21.7 °F 12.6 °F 44% 29.82 in 10.0 mi SSW 16.1 mph - N/A   Clear
6:35 AM 33.3 °F 22.8 °F 13.1 °F 43% 29.82 in 10.0 mi SSW 16.1 mph - N/A   Clear
6:55 AM 33.3 °F 23.2 °F 13.1 °F 43% 29.82 in 10.0 mi SSW 15.0 mph - N/A   Clear
7:15 AM 32.9 °F 23.2 °F 13.3 °F 44% 29.83 in 10.0 mi SSW 13.8 mph - N/A   Clear
7:35 AM 33.1 °F 23.9 °F 13.8 °F 45% 29.84 in 10.0 mi SW 12.7 mph - N/A   Clear
7:55 AM 33.3 °F 24.6 °F 14.0 °F 45% 29.84 in 10.0 mi SW 11.5 mph - N/A   Clear
8:15 AM 34.7 °F 25.9 °F 14.9 °F 44% 29.84 in 10.0 mi SW 12.7 mph - N/A   Clear
8:35 AM 36.3 °F 27.5 °F 15.6 °F 43% 29.84 in 10.0 mi SW 13.8 mph - N/A   Clear
8:55 AM 39.9 °F 32.1 °F 16.5 °F 39% 29.84 in 10.0 mi SSW 13.8 mph - N/A   Clear
9:15 AM 42.4 °F 35.0 °F 16.7 °F 35% 29.84 in 10.0 mi SW 15.0 mph - N/A   Clear
9:35 AM 44.6 °F 38.4 °F 17.6 °F 34% 29.85 in 10.0 mi SW 12.7 mph - N/A   Clear
9:55 AM 47.7 °F - 18.9 °F 32% 29.85 in 10.0 mi SW 12.7 mph - N/A   Clear
10:15 AM 52.7 °F - 20.1 °F 28% 29.85 in 10.0 mi SW 12.7 mph - N/A   Clear
10:35 AM 55.9 °F - 20.1 °F 25% 29.86 in 10.0 mi WSW 16.1 mph 25.3 mph N/A   Clear
10:55 AM 57.6 °F - 20.3 °F 24% 29.86 in 10.0 mi SW 16.1 mph 24.2 mph N/A   Clear
11:15 AM 59.0 °F - 19.8 °F 22% 29.85 in 10.0 mi WSW 17.3 mph 23.0 mph N/A   Clear
11:35 AM 60.1 °F - 19.0 °F 20% 29.85 in 10.0 mi WSW 16.1 mph 26.5 mph N/A   Clear
11:55 AM 61.0 °F - 19.0 °F 20% 29.85 in 10.0 mi WSW 15.0 mph 20.7 mph N/A   Clear
12:15 PM 61.5 °F - 19.2 °F 20% 29.85 in 10.0 mi WSW 16.1 mph 25.3 mph N/A   Clear
12:35 PM 62.8 °F - 19.4 °F 19% 29.84 in 10.0 mi WSW 16.1 mph 21.9 mph N/A   Clear
12:55 PM 67.1 °F - 19.9 °F 17% 29.82 in 10.0 mi WSW 15.0 mph 21.9 mph N/A   Clear
1:15 PM 67.5 °F - 19.4 °F 16% 29.81 in 10.0 mi WSW 12.7 mph - N/A   Clear
1:35 PM 68.5 °F - 19.9 °F 16% 29.80 in 10.0 mi WSW 17.3 mph 20.7 mph N/A   Clear
1:55 PM 69.1 °F - 19.9 °F 15% 29.79 in 10.0 mi WSW 16.1 mph 21.9 mph N/A   Clear
2:15 PM 70.9 °F - 19.4 °F 14% 29.78 in 10.0 mi WSW 15.0 mph 18.4 mph N/A   Clear
2:35 PM 70.7 °F - 19.9 °F 15% 29.77 in 10.0 mi West 12.7 mph - N/A   Clear
2:55 PM 71.8 °F - 20.3 °F 14% 29.77 in 10.0 mi WSW 8.1 mph - N/A   Clear
3:15 PM 74.3 °F - 19.9 °F 13% 29.76 in 10.0 mi WSW 10.4 mph - N/A   Clear
3:35 PM 75.2 °F - 20.1 °F 13% 29.76 in 10.0 mi West 8.1 mph - N/A   Clear
3:55 PM 74.5 °F - 20.1 °F 13% 29.75 in 10.0 mi WNW 6.9 mph - N/A   Clear
4:15 PM 73.9 °F - 20.8 °F 14% 29.75 in 10.0 mi WNW 4.6 mph - N/A   Clear
4:35 PM 73.9 °F - 21.2 °F 14% 29.75 in 10.0 mi West 5.8 mph - N/A   Clear
4:55 PM 72.9 °F - 19.9 °F 14% 29.75 in 10.0 mi WSW 11.5 mph 16.1 mph N/A   Clear
5:15 PM 71.4 °F - 19.4 °F 14% 29.76 in 10.0 mi WSW 10.4 mph - N/A   Clear
5:35 PM 69.6 °F - 19.8 °F 15% 29.76 in 10.0 mi WSW 11.5 mph - N/A   Clear
5:55 PM 68.5 °F - 19.8 °F 16% 29.76 in 10.0 mi WSW 9.2 mph - N/A   Clear
6:15 PM 67.3 °F - 19.8 °F 16% 29.76 in 10.0 mi SW 12.7 mph - N/A   Clear
6:35 PM 65.8 °F - 19.4 °F 17% 29.76 in 10.0 mi WSW 11.5 mph 16.1 mph N/A   Clear
6:55 PM 64.4 °F - 19.2 °F 18% 29.76 in 10.0 mi WSW 9.2 mph - N/A   Clear
7:15 PM 63.0 °F - 19.4 °F 19% 29.76 in 10.0 mi WSW 10.4 mph 16.1 mph N/A   Clear
7:35 PM 61.3 °F - 19.4 °F 20% 29.78 in 10.0 mi SW 8.1 mph - N/A   Clear
7:55 PM 60.1 °F - 19.4 °F 21% 29.78 in 10.0 mi SW 11.5 mph - N/A   Clear
8:15 PM 60.3 °F - 19.6 °F 21% 29.78 in 10.0 mi WSW 10.4 mph - N/A   Clear
8:35 PM 59.7 °F - 19.9 °F 21% 29.78 in 10.0 mi SW 10.4 mph - N/A   Clear
8:55 PM 59.2 °F - 19.9 °F 22% 29.79 in 10.0 mi WSW 10.4 mph - N/A   Clear
9:15 PM 58.5 °F - 19.9 °F 22% 29.78 in 10.0 mi WSW 10.4 mph - N/A   Clear
9:35 PM 59.4 °F - 20.1 °F 22% 29.78 in 10.0 mi WSW 11.5 mph 17.3 mph N/A   Clear
9:55 PM 61.7 °F - 20.8 °F 21% 29.79 in 10.0 mi WSW 15.0 mph 20.7 mph N/A   Clear
10:15 PM 61.2 °F - 21.0 °F 21% 29.78 in 10.0 mi WSW 12.7 mph - N/A   Clear
10:35 PM 60.1 °F - 21.2 °F 22% 29.78 in 10.0 mi WSW 11.5 mph - N/A   Clear
10:55 PM 59.9 °F - 21.6 °F 23% 29.78 in 10.0 mi WSW 9.2 mph 16.1 mph N/A   Clear
11:15 PM 58.1 °F - 21.9 °F 25% 29.78 in 10.0 mi SW 12.7 mph - N/A   Clear
11:35 PM 60.1 °F - 22.6 °F 24% 29.78 in 10.0 mi SW 13.8 mph - N/A   Clear
11:55 PM 58.6 °F - 22.5 °F 25% 29.79 in 10.0 mi WSW 9.2 mph - N/A   Clear